sensor_id;sensor_type;location;lat;lon;timestamp;P1;durP1;ratioP1;P2;durP2;ratioP2
33184;SDS011;19550;42.872;25.494;2023-09-07T00:00:59;18.40;;;8.65;;
33184;SDS011;19550;42.872;25.494;2023-09-07T00:03:28;20.67;;;9.45;;
33184;SDS011;19550;42.872;25.494;2023-09-07T00:05:55;19.48;;;9.20;;
33184;SDS011;19550;42.872;25.494;2023-09-07T00:08:23;17.10;;;9.50;;
33184;SDS011;19550;42.872;25.494;2023-09-07T00:10:50;19.63;;;8.80;;
33184;SDS011;19550;42.872;25.494;2023-09-07T00:13:17;15.20;;;9.63;;
33184;SDS011;19550;42.872;25.494;2023-09-07T00:15:44;18.65;;;9.23;;
33184;SDS011;19550;42.872;25.494;2023-09-07T00:18:10;13.65;;;9.48;;
33184;SDS011;19550;42.872;25.494;2023-09-07T00:20:37;19.30;;;9.18;;
33184;SDS011;19550;42.872;25.494;2023-09-07T00:23:05;15.50;;;9.13;;
33184;SDS011;19550;42.872;25.494;2023-09-07T00:25:33;20.30;;;8.98;;
33184;SDS011;19550;42.872;25.494;2023-09-07T00:28:00;17.45;;;9.52;;
33184;SDS011;19550;42.872;25.494;2023-09-07T00:30:27;19.10;;;9.95;;
33184;SDS011;19550;42.872;25.494;2023-09-07T00:32:54;16.85;;;8.93;;
33184;SDS011;19550;42.872;25.494;2023-09-07T00:35:21;16.20;;;9.10;;
33184;SDS011;19550;42.872;25.494;2023-09-07T00:37:47;24.75;;;9.18;;
33184;SDS011;19550;42.872;25.494;2023-09-07T00:40:14;22.10;;;9.18;;
33184;SDS011;19550;42.872;25.494;2023-09-07T00:42:42;14.63;;;8.38;;
33184;SDS011;19550;42.872;25.494;2023-09-07T00:45:09;17.85;;;8.40;;
33184;SDS011;19550;42.872;25.494;2023-09-07T00:47:36;18.20;;;9.02;;
33184;SDS011;19550;42.872;25.494;2023-09-07T00:50:03;14.52;;;8.63;;
33184;SDS011;19550;42.872;25.494;2023-09-07T00:52:32;16.65;;;8.40;;
33184;SDS011;19550;42.872;25.494;2023-09-07T00:55:00;23.10;;;9.13;;
33184;SDS011;19550;42.872;25.494;2023-09-07T00:57:29;17.80;;;9.05;;
33184;SDS011;19550;42.872;25.494;2023-09-07T00:59:57;20.95;;;8.23;;
33184;SDS011;19550;42.872;25.494;2023-09-07T01:02:24;22.05;;;9.55;;
33184;SDS011;19550;42.872;25.494;2023-09-07T01:04:51;17.98;;;8.98;;
33184;SDS011;19550;42.872;25.494;2023-09-07T01:07:20;27.27;;;9.65;;
33184;SDS011;19550;42.872;25.494;2023-09-07T01:09:51;15.80;;;8.68;;
33184;SDS011;19550;42.872;25.494;2023-09-07T01:12:22;13.63;;;8.48;;
33184;SDS011;19550;42.872;25.494;2023-09-07T01:14:49;15.10;;;9.02;;
33184;SDS011;19550;42.872;25.494;2023-09-07T01:17:17;16.33;;;9.15;;
33184;SDS011;19550;42.872;25.494;2023-09-07T01:19:45;15.90;;;8.88;;
33184;SDS011;19550;42.872;25.494;2023-09-07T01:24:43;17.88;;;9.68;;
33184;SDS011;19550;42.872;25.494;2023-09-07T01:27:12;17.33;;;7.80;;
33184;SDS011;19550;42.872;25.494;2023-09-07T01:29:39;21.52;;;9.00;;
33184;SDS011;19550;42.872;25.494;2023-09-07T01:32:06;18.65;;;7.65;;
33184;SDS011;19550;42.872;25.494;2023-09-07T01:34:35;14.20;;;8.18;;
33184;SDS011;19550;42.872;25.494;2023-09-07T01:37:01;18.77;;;8.68;;
33184;SDS011;19550;42.872;25.494;2023-09-07T01:39:30;17.88;;;8.77;;
33184;SDS011;19550;42.872;25.494;2023-09-07T01:41:57;27.40;;;8.15;;
33184;SDS011;19550;42.872;25.494;2023-09-07T01:44:23;21.83;;;8.95;;
33184;SDS011;19550;42.872;25.494;2023-09-07T01:46:52;18.80;;;9.10;;
33184;SDS011;19550;42.872;25.494;2023-09-07T01:49:18;20.33;;;8.50;;
33184;SDS011;19550;42.872;25.494;2023-09-07T01:51:45;24.15;;;8.52;;
33184;SDS011;19550;42.872;25.494;2023-09-07T01:54:12;15.93;;;8.63;;
33184;SDS011;19550;42.872;25.494;2023-09-07T01:56:40;16.00;;;8.85;;
33184;SDS011;19550;42.872;25.494;2023-09-07T01:59:07;17.40;;;8.45;;
33184;SDS011;19550;42.872;25.494;2023-09-07T02:01:34;13.10;;;7.70;;
33184;SDS011;19550;42.872;25.494;2023-09-07T02:04:02;14.93;;;9.45;;
33184;SDS011;19550;42.872;25.494;2023-09-07T02:06:29;12.98;;;8.38;;
33184;SDS011;19550;42.872;25.494;2023-09-07T02:08:56;20.75;;;8.85;;
33184;SDS011;19550;42.872;25.494;2023-09-07T02:11:23;14.38;;;8.65;;
33184;SDS011;19550;42.872;25.494;2023-09-07T02:13:51;28.02;;;8.35;;
33184;SDS011;19550;42.872;25.494;2023-09-07T02:16:18;15.00;;;8.85;;
33184;SDS011;19550;42.872;25.494;2023-09-07T02:18:48;18.83;;;8.75;;
33184;SDS011;19550;42.872;25.494;2023-09-07T02:21:16;20.20;;;8.65;;
33184;SDS011;19550;42.872;25.494;2023-09-07T02:23:43;15.35;;;8.93;;
33184;SDS011;19550;42.872;25.494;2023-09-07T02:26:10;13.73;;;8.20;;
33184;SDS011;19550;42.872;25.494;2023-09-07T02:28:36;14.90;;;8.43;;
33184;SDS011;19550;42.872;25.494;2023-09-07T02:31:05;19.85;;;8.45;;
33184;SDS011;19550;42.872;25.494;2023-09-07T02:33:33;16.02;;;8.30;;
33184;SDS011;19550;42.872;25.494;2023-09-07T02:36:00;15.27;;;8.60;;
33184;SDS011;19550;42.872;25.494;2023-09-07T02:38:27;16.60;;;8.68;;
33184;SDS011;19550;42.872;25.494;2023-09-07T02:40:55;21.40;;;8.75;;
33184;SDS011;19550;42.872;25.494;2023-09-07T02:43:22;17.80;;;8.38;;
33184;SDS011;19550;42.872;25.494;2023-09-07T02:45:49;22.08;;;8.95;;
33184;SDS011;19550;42.872;25.494;2023-09-07T02:48:18;12.25;;;8.38;;
33184;SDS011;19550;42.872;25.494;2023-09-07T02:50:45;21.63;;;8.02;;
33184;SDS011;19550;42.872;25.494;2023-09-07T02:53:14;13.53;;;7.87;;
33184;SDS011;19550;42.872;25.494;2023-09-07T02:55:40;20.90;;;9.63;;
33184;SDS011;19550;42.872;25.494;2023-09-07T02:58:07;15.57;;;7.75;;
33184;SDS011;19550;42.872;25.494;2023-09-07T03:00:34;14.32;;;8.68;;
33184;SDS011;19550;42.872;25.494;2023-09-07T03:03:01;16.75;;;8.23;;
33184;SDS011;19550;42.872;25.494;2023-09-07T03:05:29;19.17;;;8.40;;
33184;SDS011;19550;42.872;25.494;2023-09-07T03:07:56;14.15;;;8.57;;
33184;SDS011;19550;42.872;25.494;2023-09-07T03:10:23;25.63;;;8.63;;
33184;SDS011;19550;42.872;25.494;2023-09-07T03:12:50;16.80;;;9.27;;
33184;SDS011;19550;42.872;25.494;2023-09-07T03:15:19;19.25;;;9.15;;
33184;SDS011;19550;42.872;25.494;2023-09-07T03:17:47;18.70;;;8.60;;
33184;SDS011;19550;42.872;25.494;2023-09-07T03:20:13;16.35;;;8.65;;
33184;SDS011;19550;42.872;25.494;2023-09-07T03:22:42;17.58;;;9.00;;
33184;SDS011;19550;42.872;25.494;2023-09-07T03:25:10;19.38;;;8.68;;
33184;SDS011;19550;42.872;25.494;2023-09-07T03:27:37;13.15;;;8.27;;
33184;SDS011;19550;42.872;25.494;2023-09-07T03:30:05;17.55;;;8.68;;
33184;SDS011;19550;42.872;25.494;2023-09-07T03:32:33;15.10;;;8.82;;
33184;SDS011;19550;42.872;25.494;2023-09-07T03:35:00;13.50;;;8.32;;
33184;SDS011;19550;42.872;25.494;2023-09-07T03:37:32;19.42;;;8.75;;
33184;SDS011;19550;42.872;25.494;2023-09-07T03:40:00;16.17;;;8.73;;
33184;SDS011;19550;42.872;25.494;2023-09-07T03:42:30;18.02;;;7.88;;
33184;SDS011;19550;42.872;25.494;2023-09-07T03:44:57;15.43;;;8.85;;
33184;SDS011;19550;42.872;25.494;2023-09-07T03:47:24;18.98;;;10.05;;
33184;SDS011;19550;42.872;25.494;2023-09-07T03:52:20;17.08;;;9.20;;
33184;SDS011;19550;42.872;25.494;2023-09-07T03:54:49;15.95;;;8.20;;
33184;SDS011;19550;42.872;25.494;2023-09-07T03:57:18;15.60;;;8.52;;
33184;SDS011;19550;42.872;25.494;2023-09-07T03:59:45;17.55;;;8.63;;
33184;SDS011;19550;42.872;25.494;2023-09-07T04:02:11;17.42;;;8.95;;
33184;SDS011;19550;42.872;25.494;2023-09-07T04:04:37;20.45;;;9.25;;
33184;SDS011;19550;42.872;25.494;2023-09-07T04:07:04;23.60;;;11.23;;
33184;SDS011;19550;42.872;25.494;2023-09-07T04:09:31;24.33;;;14.38;;
33184;SDS011;19550;42.872;25.494;2023-09-07T04:11:58;21.17;;;9.88;;
33184;SDS011;19550;42.872;25.494;2023-09-07T04:14:27;23.38;;;16.88;;
33184;SDS011;19550;42.872;25.494;2023-09-07T04:16:54;22.83;;;12.18;;
33184;SDS011;19550;42.872;25.494;2023-09-07T04:19:21;22.58;;;10.40;;
33184;SDS011;19550;42.872;25.494;2023-09-07T04:21:48;26.80;;;11.88;;
33184;SDS011;19550;42.872;25.494;2023-09-07T04:24:14;23.38;;;14.38;;
33184;SDS011;19550;42.872;25.494;2023-09-07T04:26:41;40.35;;;26.00;;
33184;SDS011;19550;42.872;25.494;2023-09-07T04:29:08;16.70;;;11.68;;
33184;SDS011;19550;42.872;25.494;2023-09-07T04:31:38;19.90;;;13.00;;
33184;SDS011;19550;42.872;25.494;2023-09-07T04:34:05;20.00;;;10.93;;
33184;SDS011;19550;42.872;25.494;2023-09-07T04:36:32;19.30;;;10.20;;
33184;SDS011;19550;42.872;25.494;2023-09-07T04:38:58;22.20;;;12.15;;
33184;SDS011;19550;42.872;25.494;2023-09-07T04:41:25;38.53;;;24.30;;
33184;SDS011;19550;42.872;25.494;2023-09-07T04:43:53;28.73;;;12.85;;
33184;SDS011;19550;42.872;25.494;2023-09-07T04:46:21;22.52;;;13.70;;
33184;SDS011;19550;42.872;25.494;2023-09-07T04:48:50;21.75;;;13.43;;
33184;SDS011;19550;42.872;25.494;2023-09-07T04:51:16;20.80;;;14.73;;
33184;SDS011;19550;42.872;25.494;2023-09-07T04:53:45;22.05;;;14.38;;
33184;SDS011;19550;42.872;25.494;2023-09-07T04:56:12;24.02;;;13.27;;
33184;SDS011;19550;42.872;25.494;2023-09-07T04:58:39;23.08;;;12.65;;
33184;SDS011;19550;42.872;25.494;2023-09-07T05:01:07;15.63;;;10.88;;
33184;SDS011;19550;42.872;25.494;2023-09-07T05:06:04;18.10;;;11.18;;
33184;SDS011;19550;42.872;25.494;2023-09-07T05:08:31;15.50;;;9.75;;
33184;SDS011;19550;42.872;25.494;2023-09-07T05:10:58;18.98;;;10.55;;
33184;SDS011;19550;42.872;25.494;2023-09-07T05:13:27;17.92;;;11.50;;
33184;SDS011;19550;42.872;25.494;2023-09-07T05:15:54;16.98;;;10.93;;
33184;SDS011;19550;42.872;25.494;2023-09-07T05:18:22;19.85;;;10.88;;
33184;SDS011;19550;42.872;25.494;2023-09-07T05:20:49;24.17;;;10.40;;
33184;SDS011;19550;42.872;25.494;2023-09-07T05:23:18;17.88;;;10.90;;
33184;SDS011;19550;42.872;25.494;2023-09-07T05:25:45;19.23;;;10.27;;
33184;SDS011;19550;42.872;25.494;2023-09-07T05:28:13;19.38;;;9.93;;
33184;SDS011;19550;42.872;25.494;2023-09-07T05:30:41;16.55;;;9.52;;
33184;SDS011;19550;42.872;25.494;2023-09-07T05:33:08;21.10;;;9.82;;
33184;SDS011;19550;42.872;25.494;2023-09-07T05:35:36;16.25;;;9.48;;
33184;SDS011;19550;42.872;25.494;2023-09-07T05:38:03;16.23;;;9.73;;
33184;SDS011;19550;42.872;25.494;2023-09-07T05:40:34;17.77;;;10.15;;
33184;SDS011;19550;42.872;25.494;2023-09-07T05:43:02;22.65;;;10.10;;
33184;SDS011;19550;42.872;25.494;2023-09-07T05:45:29;22.33;;;10.02;;
33184;SDS011;19550;42.872;25.494;2023-09-07T05:47:57;21.63;;;10.90;;
33184;SDS011;19550;42.872;25.494;2023-09-07T05:50:24;13.00;;;9.13;;
33184;SDS011;19550;42.872;25.494;2023-09-07T05:52:50;17.17;;;9.48;;
33184;SDS011;19550;42.872;25.494;2023-09-07T05:55:17;18.85;;;9.90;;
33184;SDS011;19550;42.872;25.494;2023-09-07T05:57:45;16.60;;;8.90;;
33184;SDS011;19550;42.872;25.494;2023-09-07T06:00:14;22.05;;;10.30;;
33184;SDS011;19550;42.872;25.494;2023-09-07T06:02:42;16.50;;;9.27;;
33184;SDS011;19550;42.872;25.494;2023-09-07T06:05:09;13.50;;;9.60;;
33184;SDS011;19550;42.872;25.494;2023-09-07T06:07:36;22.60;;;8.98;;
33184;SDS011;19550;42.872;25.494;2023-09-07T06:10:03;19.90;;;9.27;;
33184;SDS011;19550;42.872;25.494;2023-09-07T06:12:31;15.15;;;9.85;;
33184;SDS011;19550;42.872;25.494;2023-09-07T06:14:59;15.80;;;9.63;;
33184;SDS011;19550;42.872;25.494;2023-09-07T06:17:27;14.07;;;9.20;;
33184;SDS011;19550;42.872;25.494;2023-09-07T06:19:54;14.25;;;9.32;;
33184;SDS011;19550;42.872;25.494;2023-09-07T06:22:21;18.45;;;9.52;;
33184;SDS011;19550;42.872;25.494;2023-09-07T06:24:48;19.83;;;10.15;;
33184;SDS011;19550;42.872;25.494;2023-09-07T06:27:15;16.83;;;9.23;;
33184;SDS011;19550;42.872;25.494;2023-09-07T06:29:42;18.85;;;9.05;;
33184;SDS011;19550;42.872;25.494;2023-09-07T06:32:10;15.35;;;8.82;;
33184;SDS011;19550;42.872;25.494;2023-09-07T06:34:37;17.27;;;9.60;;
33184;SDS011;19550;42.872;25.494;2023-09-07T06:37:04;17.98;;;10.15;;
33184;SDS011;19550;42.872;25.494;2023-09-07T06:39:31;16.30;;;8.63;;
33184;SDS011;19550;42.872;25.494;2023-09-07T06:41:58;13.93;;;8.88;;
33184;SDS011;19550;42.872;25.494;2023-09-07T06:44:25;15.85;;;8.45;;
33184;SDS011;19550;42.872;25.494;2023-09-07T06:46:52;16.10;;;9.60;;
33184;SDS011;19550;42.872;25.494;2023-09-07T06:49:20;16.70;;;9.90;;
33184;SDS011;19550;42.872;25.494;2023-09-07T06:51:47;14.23;;;9.32;;
33184;SDS011;19550;42.872;25.494;2023-09-07T06:54:14;19.80;;;9.57;;
33184;SDS011;19550;42.872;25.494;2023-09-07T06:56:41;14.63;;;8.38;;
33184;SDS011;19550;42.872;25.494;2023-09-07T06:59:08;16.38;;;8.18;;
33184;SDS011;19550;42.872;25.494;2023-09-07T07:01:34;16.30;;;8.23;;
33184;SDS011;19550;42.872;25.494;2023-09-07T07:04:01;17.58;;;8.50;;
33184;SDS011;19550;42.872;25.494;2023-09-07T07:06:30;20.90;;;8.75;;
33184;SDS011;19550;42.872;25.494;2023-09-07T07:08:56;14.27;;;8.48;;
33184;SDS011;19550;42.872;25.494;2023-09-07T07:11:23;16.58;;;8.43;;
33184;SDS011;19550;42.872;25.494;2023-09-07T07:13:50;10.50;;;7.85;;
33184;SDS011;19550;42.872;25.494;2023-09-07T07:16:17;16.63;;;7.50;;
33184;SDS011;19550;42.872;25.494;2023-09-07T07:18:44;12.20;;;8.00;;
33184;SDS011;19550;42.872;25.494;2023-09-07T07:21:10;15.38;;;7.68;;
33184;SDS011;19550;42.872;25.494;2023-09-07T07:26:08;19.35;;;7.53;;
33184;SDS011;19550;42.872;25.494;2023-09-07T07:28:35;13.68;;;8.20;;
33184;SDS011;19550;42.872;25.494;2023-09-07T07:31:06;11.27;;;8.45;;
33184;SDS011;19550;42.872;25.494;2023-09-07T07:33:34;15.93;;;7.55;;
33184;SDS011;19550;42.872;25.494;2023-09-07T07:36:02;10.35;;;7.45;;
33184;SDS011;19550;42.872;25.494;2023-09-07T07:38:29;11.10;;;7.25;;
33184;SDS011;19550;42.872;25.494;2023-09-07T07:40:57;14.10;;;7.85;;
33184;SDS011;19550;42.872;25.494;2023-09-07T07:43:24;12.27;;;7.70;;
33184;SDS011;19550;42.872;25.494;2023-09-07T07:45:51;19.02;;;8.02;;
33184;SDS011;19550;42.872;25.494;2023-09-07T07:48:18;14.27;;;7.60;;
33184;SDS011;19550;42.872;25.494;2023-09-07T07:50:48;14.45;;;7.93;;
33184;SDS011;19550;42.872;25.494;2023-09-07T07:53:15;10.95;;;7.30;;
33184;SDS011;19550;42.872;25.494;2023-09-07T07:55:42;13.80;;;7.57;;
33184;SDS011;19550;42.872;25.494;2023-09-07T07:58:10;14.30;;;8.23;;
33184;SDS011;19550;42.872;25.494;2023-09-07T08:00:37;10.50;;;7.32;;
33184;SDS011;19550;42.872;25.494;2023-09-07T08:03:06;13.82;;;7.82;;
33184;SDS011;19550;42.872;25.494;2023-09-07T08:05:33;12.98;;;7.88;;
33184;SDS011;19550;42.872;25.494;2023-09-07T08:08:00;13.80;;;7.20;;
33184;SDS011;19550;42.872;25.494;2023-09-07T08:10:28;10.98;;;7.45;;
33184;SDS011;19550;42.872;25.494;2023-09-07T08:12:55;12.35;;;8.25;;
33184;SDS011;19550;42.872;25.494;2023-09-07T08:15:25;15.98;;;7.18;;
33184;SDS011;19550;42.872;25.494;2023-09-07T08:17:52;12.70;;;7.43;;
33184;SDS011;19550;42.872;25.494;2023-09-07T08:20:19;12.98;;;6.93;;
33184;SDS011;19550;42.872;25.494;2023-09-07T08:22:46;13.77;;;7.55;;
33184;SDS011;19550;42.872;25.494;2023-09-07T08:25:13;11.00;;;7.53;;
33184;SDS011;19550;42.872;25.494;2023-09-07T08:27:40;10.80;;;7.20;;
33184;SDS011;19550;42.872;25.494;2023-09-07T08:30:10;10.00;;;7.23;;
33184;SDS011;19550;42.872;25.494;2023-09-07T08:32:39;10.30;;;6.95;;
33184;SDS011;19550;42.872;25.494;2023-09-07T08:35:06;10.52;;;7.38;;
33184;SDS011;19550;42.872;25.494;2023-09-07T08:37:34;9.48;;;7.28;;
33184;SDS011;19550;42.872;25.494;2023-09-07T08:40:01;10.15;;;7.15;;
33184;SDS011;19550;42.872;25.494;2023-09-07T08:42:32;14.30;;;7.05;;
33184;SDS011;19550;42.872;25.494;2023-09-07T08:45:00;11.45;;;7.22;;
33184;SDS011;19550;42.872;25.494;2023-09-07T08:47:31;7.53;;;6.68;;
33184;SDS011;19550;42.872;25.494;2023-09-07T08:50:02;10.18;;;6.45;;
33184;SDS011;19550;42.872;25.494;2023-09-07T08:52:31;8.32;;;6.28;;
33184;SDS011;19550;42.872;25.494;2023-09-07T08:54:58;12.20;;;6.18;;
33184;SDS011;19550;42.872;25.494;2023-09-07T08:57:29;12.45;;;6.10;;
33184;SDS011;19550;42.872;25.494;2023-09-07T08:59:57;10.00;;;6.32;;
33184;SDS011;19550;42.872;25.494;2023-09-07T09:02:24;8.88;;;6.13;;
33184;SDS011;19550;42.872;25.494;2023-09-07T09:04:50;11.68;;;6.43;;
33184;SDS011;19550;42.872;25.494;2023-09-07T09:07:20;11.40;;;6.30;;
33184;SDS011;19550;42.872;25.494;2023-09-07T09:09:47;11.57;;;6.07;;
33184;SDS011;19550;42.872;25.494;2023-09-07T09:12:14;7.95;;;6.38;;
33184;SDS011;19550;42.872;25.494;2023-09-07T09:14:42;14.20;;;6.40;;
33184;SDS011;19550;42.872;25.494;2023-09-07T09:17:12;10.52;;;6.20;;
33184;SDS011;19550;42.872;25.494;2023-09-07T09:19:40;8.20;;;5.47;;
33184;SDS011;19550;42.872;25.494;2023-09-07T09:22:07;12.80;;;5.82;;
33184;SDS011;19550;42.872;25.494;2023-09-07T09:24:35;12.18;;;5.65;;
33184;SDS011;19550;42.872;25.494;2023-09-07T09:27:02;9.60;;;6.20;;
33184;SDS011;19550;42.872;25.494;2023-09-07T09:29:32;14.93;;;6.20;;
33184;SDS011;19550;42.872;25.494;2023-09-07T09:31:59;14.05;;;6.38;;
33184;SDS011;19550;42.872;25.494;2023-09-07T09:34:30;7.72;;;5.63;;
33184;SDS011;19550;42.872;25.494;2023-09-07T09:37:00;12.63;;;5.63;;
33184;SDS011;19550;42.872;25.494;2023-09-07T09:39:28;13.48;;;5.32;;
33184;SDS011;19550;42.872;25.494;2023-09-07T09:41:57;10.77;;;5.43;;
33184;SDS011;19550;42.872;25.494;2023-09-07T09:44:24;12.40;;;6.20;;
33184;SDS011;19550;42.872;25.494;2023-09-07T09:46:51;8.55;;;5.47;;
33184;SDS011;19550;42.872;25.494;2023-09-07T09:49:20;10.30;;;5.82;;
33184;SDS011;19550;42.872;25.494;2023-09-07T09:51:48;12.77;;;6.30;;
33184;SDS011;19550;42.872;25.494;2023-09-07T09:54:16;9.82;;;5.82;;
33184;SDS011;19550;42.872;25.494;2023-09-07T09:56:44;8.98;;;5.57;;
33184;SDS011;19550;42.872;25.494;2023-09-07T09:59:13;10.75;;;6.18;;
33184;SDS011;19550;42.872;25.494;2023-09-07T10:04:09;13.00;;;6.53;;
33184;SDS011;19550;42.872;25.494;2023-09-07T10:06:38;11.57;;;6.20;;
33184;SDS011;19550;42.872;25.494;2023-09-07T10:09:05;22.55;;;7.65;;
33184;SDS011;19550;42.872;25.494;2023-09-07T10:11:36;8.88;;;6.10;;
33184;SDS011;19550;42.872;25.494;2023-09-07T10:14:04;7.03;;;6.20;;
33184;SDS011;19550;42.872;25.494;2023-09-07T10:16:43;11.90;;;6.43;;
33184;SDS011;19550;42.872;25.494;2023-09-07T10:19:15;8.38;;;6.15;;
33184;SDS011;19550;42.872;25.494;2023-09-07T10:21:42;11.95;;;6.93;;
33184;SDS011;19550;42.872;25.494;2023-09-07T10:24:09;11.73;;;6.35;;
33184;SDS011;19550;42.872;25.494;2023-09-07T10:26:37;11.00;;;6.03;;
33184;SDS011;19550;42.872;25.494;2023-09-07T10:29:04;10.88;;;6.20;;
33184;SDS011;19550;42.872;25.494;2023-09-07T10:31:31;9.95;;;6.35;;
33184;SDS011;19550;42.872;25.494;2023-09-07T10:34:08;6.43;;;5.80;;
33184;SDS011;19550;42.872;25.494;2023-09-07T10:36:37;8.82;;;6.20;;
33184;SDS011;19550;42.872;25.494;2023-09-07T10:39:04;9.55;;;5.55;;
33184;SDS011;19550;42.872;25.494;2023-09-07T10:41:41;13.48;;;6.82;;
33184;SDS011;19550;42.872;25.494;2023-09-07T10:44:09;10.65;;;6.18;;
33184;SDS011;19550;42.872;25.494;2023-09-07T10:46:37;8.25;;;5.90;;
33184;SDS011;19550;42.872;25.494;2023-09-07T10:49:06;7.90;;;5.53;;
33184;SDS011;19550;42.872;25.494;2023-09-07T10:51:41;11.82;;;6.93;;
33184;SDS011;19550;42.872;25.494;2023-09-07T10:54:15;11.68;;;6.63;;
33184;SDS011;19550;42.872;25.494;2023-09-07T10:56:43;15.15;;;6.30;;
33184;SDS011;19550;42.872;25.494;2023-09-07T10:59:11;11.20;;;6.75;;
33184;SDS011;19550;42.872;25.494;2023-09-07T11:01:40;11.63;;;6.18;;
33184;SDS011;19550;42.872;25.494;2023-09-07T11:04:06;7.95;;;6.13;;
33184;SDS011;19550;42.872;25.494;2023-09-07T11:06:36;9.55;;;6.15;;
33184;SDS011;19550;42.872;25.494;2023-09-07T11:09:05;11.02;;;6.47;;
33184;SDS011;19550;42.872;25.494;2023-09-07T11:11:35;9.80;;;6.30;;
33184;SDS011;19550;42.872;25.494;2023-09-07T11:14:02;8.55;;;6.13;;
33184;SDS011;19550;42.872;25.494;2023-09-07T11:16:30;9.30;;;6.07;;
33184;SDS011;19550;42.872;25.494;2023-09-07T11:18:57;10.13;;;6.55;;
33184;SDS011;19550;42.872;25.494;2023-09-07T11:21:25;8.43;;;6.07;;
33184;SDS011;19550;42.872;25.494;2023-09-07T11:23:52;9.57;;;6.13;;
33184;SDS011;19550;42.872;25.494;2023-09-07T11:26:21;9.25;;;6.30;;
33184;SDS011;19550;42.872;25.494;2023-09-07T11:28:48;12.07;;;6.37;;
33184;SDS011;19550;42.872;25.494;2023-09-07T11:31:18;10.43;;;6.30;;
33184;SDS011;19550;42.872;25.494;2023-09-07T11:33:46;7.53;;;5.90;;
33184;SDS011;19550;42.872;25.494;2023-09-07T11:36:14;10.27;;;6.50;;
33184;SDS011;19550;42.872;25.494;2023-09-07T11:38:42;7.00;;;5.95;;
33184;SDS011;19550;42.872;25.494;2023-09-07T11:41:10;10.73;;;6.65;;
33184;SDS011;19550;42.872;25.494;2023-09-07T11:43:38;11.07;;;6.20;;
33184;SDS011;19550;42.872;25.494;2023-09-07T11:46:07;9.70;;;6.20;;
33184;SDS011;19550;42.872;25.494;2023-09-07T11:48:34;6.63;;;5.70;;
33184;SDS011;19550;42.872;25.494;2023-09-07T11:51:01;12.50;;;5.95;;
33184;SDS011;19550;42.872;25.494;2023-09-07T11:53:29;12.38;;;6.25;;
33184;SDS011;19550;42.872;25.494;2023-09-07T11:55:56;7.25;;;5.68;;
33184;SDS011;19550;42.872;25.494;2023-09-07T11:58:24;14.27;;;6.28;;
33184;SDS011;19550;42.872;25.494;2023-09-07T12:00:53;8.45;;;5.60;;
33184;SDS011;19550;42.872;25.494;2023-09-07T12:03:20;10.43;;;6.07;;
33184;SDS011;19550;42.872;25.494;2023-09-07T12:05:47;10.90;;;6.40;;
33184;SDS011;19550;42.872;25.494;2023-09-07T12:08:14;15.43;;;5.90;;
33184;SDS011;19550;42.872;25.494;2023-09-07T12:10:40;12.13;;;6.47;;
33184;SDS011;19550;42.872;25.494;2023-09-07T12:13:07;10.32;;;6.00;;
33184;SDS011;19550;42.872;25.494;2023-09-07T12:15:34;6.88;;;5.78;;
33184;SDS011;19550;42.872;25.494;2023-09-07T12:18:03;7.45;;;5.78;;
33184;SDS011;19550;42.872;25.494;2023-09-07T12:20:30;10.32;;;6.35;;
33184;SDS011;19550;42.872;25.494;2023-09-07T12:22:57;12.90;;;5.88;;
33184;SDS011;19550;42.872;25.494;2023-09-07T12:25:24;11.00;;;5.43;;
33184;SDS011;19550;42.872;25.494;2023-09-07T12:27:51;9.63;;;6.07;;
33184;SDS011;19550;42.872;25.494;2023-09-07T12:30:18;7.68;;;5.78;;
33184;SDS011;19550;42.872;25.494;2023-09-07T12:32:47;6.78;;;5.90;;
33184;SDS011;19550;42.872;25.494;2023-09-07T12:35:15;11.50;;;6.18;;
33184;SDS011;19550;42.872;25.494;2023-09-07T12:37:43;8.43;;;5.80;;
33184;SDS011;19550;42.872;25.494;2023-09-07T12:40:10;8.60;;;6.25;;
33184;SDS011;19550;42.872;25.494;2023-09-07T12:42:38;7.45;;;5.93;;
33184;SDS011;19550;42.872;25.494;2023-09-07T12:45:06;9.45;;;6.18;;
33184;SDS011;19550;42.872;25.494;2023-09-07T12:47:34;7.30;;;5.80;;
33184;SDS011;19550;42.872;25.494;2023-09-07T12:50:01;9.70;;;6.05;;
33184;SDS011;19550;42.872;25.494;2023-09-07T12:52:29;10.55;;;5.60;;
33184;SDS011;19550;42.872;25.494;2023-09-07T12:54:56;8.35;;;5.72;;
33184;SDS011;19550;42.872;25.494;2023-09-07T12:57:22;9.02;;;5.97;;
33184;SDS011;19550;42.872;25.494;2023-09-07T12:59:49;10.43;;;5.90;;
33184;SDS011;19550;42.872;25.494;2023-09-07T13:02:16;11.15;;;5.65;;
33184;SDS011;19550;42.872;25.494;2023-09-07T13:04:43;7.35;;;5.93;;
33184;SDS011;19550;42.872;25.494;2023-09-07T13:07:10;8.40;;;5.43;;
33184;SDS011;19550;42.872;25.494;2023-09-07T13:09:38;8.63;;;6.40;;
33184;SDS011;19550;42.872;25.494;2023-09-07T13:12:05;8.45;;;5.85;;
33184;SDS011;19550;42.872;25.494;2023-09-07T13:14:33;9.35;;;6.15;;
33184;SDS011;19550;42.872;25.494;2023-09-07T13:17:00;7.75;;;6.00;;
33184;SDS011;19550;42.872;25.494;2023-09-07T13:19:26;8.20;;;5.53;;
33184;SDS011;19550;42.872;25.494;2023-09-07T13:21:54;7.68;;;5.70;;
33184;SDS011;19550;42.872;25.494;2023-09-07T13:24:21;10.15;;;6.00;;
33184;SDS011;19550;42.872;25.494;2023-09-07T13:26:50;7.70;;;5.93;;
33184;SDS011;19550;42.872;25.494;2023-09-07T13:29:17;9.45;;;6.18;;
33184;SDS011;19550;42.872;25.494;2023-09-07T13:31:44;11.32;;;5.80;;
33184;SDS011;19550;42.872;25.494;2023-09-07T13:34:10;9.35;;;6.22;;
33184;SDS011;19550;42.872;25.494;2023-09-07T13:36:38;8.77;;;5.55;;
33184;SDS011;19550;42.872;25.494;2023-09-07T13:39:05;8.30;;;5.45;;
33184;SDS011;19550;42.872;25.494;2023-09-07T13:41:32;6.43;;;5.75;;
33184;SDS011;19550;42.872;25.494;2023-09-07T13:44:00;10.23;;;5.47;;
33184;SDS011;19550;42.872;25.494;2023-09-07T13:46:27;8.52;;;6.07;;
33184;SDS011;19550;42.872;25.494;2023-09-07T13:48:54;9.38;;;6.20;;
33184;SDS011;19550;42.872;25.494;2023-09-07T13:51:21;17.85;;;5.95;;
33184;SDS011;19550;42.872;25.494;2023-09-07T13:53:48;13.40;;;6.60;;
33184;SDS011;19550;42.872;25.494;2023-09-07T13:56:15;12.05;;;6.85;;
33184;SDS011;19550;42.872;25.494;2023-09-07T13:58:42;10.10;;;5.57;;
33184;SDS011;19550;42.872;25.494;2023-09-07T14:01:10;7.60;;;6.18;;
33184;SDS011;19550;42.872;25.494;2023-09-07T14:03:37;9.50;;;6.22;;
33184;SDS011;19550;42.872;25.494;2023-09-07T14:06:03;12.40;;;7.60;;
33184;SDS011;19550;42.872;25.494;2023-09-07T14:08:30;11.02;;;7.13;;
33184;SDS011;19550;42.872;25.494;2023-09-07T14:10:59;9.10;;;6.72;;
33184;SDS011;19550;42.872;25.494;2023-09-07T14:13:26;8.15;;;6.10;;
33184;SDS011;19550;42.872;25.494;2023-09-07T14:15:53;8.45;;;6.03;;
33184;SDS011;19550;42.872;25.494;2023-09-07T14:18:21;11.32;;;5.68;;
33184;SDS011;19550;42.872;25.494;2023-09-07T14:20:49;7.30;;;5.97;;
33184;SDS011;19550;42.872;25.494;2023-09-07T14:23:15;11.00;;;6.85;;
33184;SDS011;19550;42.872;25.494;2023-09-07T14:25:42;9.73;;;5.63;;
33184;SDS011;19550;42.872;25.494;2023-09-07T14:28:10;6.57;;;5.78;;
33184;SDS011;19550;42.872;25.494;2023-09-07T14:30:37;11.77;;;5.70;;
33184;SDS011;19550;42.872;25.494;2023-09-07T14:33:04;10.93;;;6.30;;
33184;SDS011;19550;42.872;25.494;2023-09-07T14:35:32;12.25;;;6.78;;
33184;SDS011;19550;42.872;25.494;2023-09-07T14:38:00;9.80;;;6.15;;